Briefing drone pour Guerigny

Rechercher une autre localisation

Conditions de vol :


Nous sommes le : Samedi 04 février 2023
Il est 22:53 UTC (23:53 LT)

Lever de soleil : 06:42 UTC (07:42 LT)
Coucher de soleil : 17:19 UTC (18:19 LT)

Météo

L'essentiel des conditions de vol

VIGILANCE MÉTÉO FRANCE - Nièvre (58)
Pas de vigilances particulieres
METAR de LFQG
LFQG 041800Z AUTO 35004KT 9999 OVC019 09/07 Q1037

Date d'émission: 04/02/2023
Heure d'émission: 18:00 UTC
Vent: 350° pour 4 KT (7 km/h)
Visibilité horizontale: > 10 km
Plafond :
- Couvert à 1900ft (579m)
Température: 9 °C
Point de rosée: 7 °C
Humidité: 87%
Pression (QNH): 1037 hPa
Prévision 24h pour Nevers (7 km)
Vent : 6° pour 4 KT (13 km/h)
Temperature Maxi: 4 °C
Temperature Min: 4 °C
Humidité : 76%
Condition : Couvert



Warning: count(): Parameter must be an array or an object that implements Countable in /homepages/6/d509196549/htdocs/droneoxygene/briefing.php on line 743
WEBCAM POUR GUERIGNY

Réglementation

Voler en sécurité

CARTES AERONAUTIQUE 1/500.000
CARTE AZBA (Reseau basse altitude)
CARTES VAC (LFQG)
SUP AIP




Chargement des AIP...
NOTAM (GUERIGNY + Terrain à proximité / FIR )




Chargement des NOTAMS...
CONTACT PREFECTURE 58
Nièvre (58) : [email protected]


Avertissement : Les données mises à disposition sont indicatives. Oxygène Drone ne pourra être tenu responsable de dégâts causés aux biens et aux personnes.